createdAt,value
2023-07-08T00:01:43.766Z,2.80
2023-07-08T00:04:11.906Z,2.70
2023-07-08T00:06:40.023Z,2.85
2023-07-08T00:09:11.542Z,2.92
2023-07-08T00:11:40.979Z,3.05
2023-07-08T00:14:10.987Z,2.78
2023-07-08T00:16:40.127Z,3.07
2023-07-08T00:19:10.528Z,2.88
2023-07-08T00:21:38.532Z,2.85
2023-07-08T00:24:06.928Z,2.88
2023-07-08T00:26:35.055Z,2.88
2023-07-08T00:29:04.884Z,3.20
2023-07-08T00:31:33.267Z,3.13
2023-07-08T00:34:04.288Z,3.30
2023-07-08T00:36:32.299Z,3.10
2023-07-08T00:39:00.263Z,3.25
2023-07-08T00:41:30.473Z,3.03
2023-07-08T00:43:59.532Z,2.83
2023-07-08T00:46:33.946Z,3.08
2023-07-08T00:49:05.472Z,3.38
2023-07-08T00:51:33.523Z,3.17
2023-07-08T00:54:01.644Z,3.50
2023-07-08T00:56:31.753Z,3.17
2023-07-08T00:59:01.587Z,3.43
2023-07-08T01:01:30.226Z,2.80
2023-07-08T01:04:02.314Z,3.03
2023-07-08T01:06:32.583Z,3.28
2023-07-08T01:09:03.909Z,3.50
2023-07-08T01:11:32.152Z,3.17
2023-07-08T01:14:01.970Z,3.00
2023-07-08T01:16:30.170Z,3.35
2023-07-08T01:19:00.774Z,2.90
2023-07-08T01:21:30.877Z,2.63
2023-07-08T01:24:01.051Z,3.23
2023-07-08T01:26:29.158Z,3.50
2023-07-08T01:28:57.382Z,2.90
2023-07-08T01:31:25.508Z,3.20
2023-07-08T01:33:54.039Z,3.30
2023-07-08T01:36:22.471Z,2.92
2023-07-08T01:38:51.129Z,3.33
2023-07-08T01:41:20.538Z,2.88
2023-07-08T01:43:48.555Z,3.03
2023-07-08T01:46:19.297Z,3.08
2023-07-08T01:48:48.623Z,3.17
2023-07-08T01:51:16.738Z,3.03
2023-07-08T01:53:45.158Z,3.30
2023-07-08T01:56:14.381Z,3.50
2023-07-08T01:58:43.783Z,3.38
2023-07-08T02:01:11.871Z,2.75
2023-07-08T02:03:40.802Z,2.90
2023-07-08T02:06:10.659Z,3.22
2023-07-08T02:08:38.693Z,3.22
2023-07-08T02:11:06.711Z,3.50
2023-07-08T02:13:34.795Z,3.58
2023-07-08T02:16:04.379Z,3.33
2023-07-08T02:18:33.632Z,2.92
2023-07-08T02:21:01.998Z,3.20
2023-07-08T02:23:30.226Z,3.22
2023-07-08T02:26:01.782Z,3.63
2023-07-08T02:28:29.773Z,3.50
2023-07-08T02:30:57.927Z,3.30
2023-07-08T02:33:34.215Z,3.33
2023-07-08T02:36:02.518Z,3.75
2023-07-08T02:38:31.024Z,3.63
2023-07-08T02:40:59.848Z,3.38
2023-07-08T02:43:28.249Z,3.50
2023-07-08T02:45:56.304Z,3.55
2023-07-08T02:48:24.328Z,3.58
2023-07-08T02:51:00.464Z,3.30
2023-07-08T02:53:28.917Z,3.60
2023-07-08T02:55:57.116Z,3.20
2023-07-08T02:58:25.421Z,3.75
2023-07-08T03:00:53.850Z,3.67
2023-07-08T03:03:22.146Z,3.50
2023-07-08T03:05:57.184Z,3.55
2023-07-08T03:08:25.215Z,4.00
2023-07-08T03:10:56.860Z,3.80
2023-07-08T03:13:25.000Z,3.42
2023-07-08T03:15:53.045Z,3.45
2023-07-08T03:18:22.495Z,3.78
2023-07-08T03:20:50.853Z,3.70
2023-07-08T03:23:20.424Z,3.78
2023-07-08T03:25:49.317Z,3.70
2023-07-08T03:28:17.928Z,3.53
2023-07-08T03:30:46.759Z,3.35
2023-07-08T03:33:14.808Z,3.67
2023-07-08T03:35:43.061Z,3.22
2023-07-08T03:38:11.121Z,3.33
2023-07-08T03:40:40.449Z,3.65
2023-07-08T03:43:08.517Z,3.22
2023-07-08T03:45:38.440Z,3.80
2023-07-08T03:48:07.334Z,3.83
2023-07-08T03:50:35.409Z,3.78
2023-07-08T03:53:03.367Z,4.00
2023-07-08T03:55:33.557Z,3.42
2023-07-08T03:58:03.044Z,3.60
2023-07-08T04:00:33.748Z,3.60
2023-07-08T04:03:03.389Z,3.85
2023-07-08T04:05:31.605Z,3.38
2023-07-08T04:07:59.672Z,3.60
2023-07-08T04:10:27.847Z,3.78
2023-07-08T04:12:55.906Z,3.60
2023-07-08T04:15:29.655Z,3.33
2023-07-08T04:18:00.673Z,3.90
2023-07-08T04:20:28.743Z,3.70
2023-07-08T04:22:56.778Z,3.67
2023-07-08T04:25:28.086Z,3.70
2023-07-08T04:27:57.144Z,3.70
2023-07-08T04:30:27.530Z,3.40
2023-07-08T04:32:57.191Z,3.80
2023-07-08T04:35:25.614Z,3.55
2023-07-08T04:37:55.551Z,3.67
2023-07-08T04:40:23.756Z,3.88
2023-07-08T04:42:53.212Z,3.78
2023-07-08T04:45:21.366Z,3.72
2023-07-08T04:47:53.524Z,3.80
2023-07-08T04:50:22.269Z,3.72
2023-07-08T04:52:50.838Z,3.90
2023-07-08T04:55:19.669Z,3.97
2023-07-08T04:57:47.625Z,3.60
2023-07-08T05:00:18.046Z,4.15
2023-07-08T05:02:46.126Z,3.70
2023-07-08T05:05:15.664Z,3.70
2023-07-08T05:07:44.499Z,3.83
2023-07-08T05:10:12.659Z,3.53
2023-07-08T05:12:40.855Z,3.95
2023-07-08T05:15:09.184Z,4.35
2023-07-08T05:17:37.288Z,3.72
2023-07-08T05:20:05.609Z,3.72
2023-07-08T05:22:34.885Z,3.70
2023-07-08T05:25:03.200Z,3.72
2023-07-08T05:27:31.581Z,3.25
2023-07-08T05:29:59.560Z,4.10
2023-07-08T05:32:28.286Z,3.50
2023-07-08T05:34:56.480Z,3.80
2023-07-08T05:37:26.357Z,3.90
2023-07-08T05:39:56.149Z,3.40
2023-07-08T05:42:24.544Z,3.47
2023-07-08T05:44:53.587Z,4.15
2023-07-08T05:47:21.661Z,3.38
2023-07-08T05:49:49.785Z,3.65
2023-07-08T05:52:17.829Z,3.60
2023-07-08T05:54:45.842Z,3.50
2023-07-08T05:57:15.363Z,3.55
2023-07-08T05:59:44.298Z,3.50
2023-07-08T06:02:13.339Z,3.20
2023-07-08T06:04:41.366Z,3.60
2023-07-08T06:07:09.435Z,3.28
2023-07-08T06:09:37.595Z,3.15
2023-07-08T06:12:06.037Z,3.10
2023-07-08T06:14:35.452Z,3.08
2023-07-08T06:17:03.574Z,3.30
2023-07-08T06:19:31.723Z,3.00
2023-07-08T06:22:09.203Z,3.22
2023-07-08T06:24:48.573Z,3.10
2023-07-08T06:27:16.914Z,3.58
2023-07-08T06:29:46.723Z,3.08
2023-07-08T06:32:14.764Z,3.40
2023-07-08T06:34:42.806Z,3.20
2023-07-08T06:37:11.076Z,3.08
2023-07-08T06:39:42.128Z,3.10
2023-07-08T06:42:10.432Z,2.90
2023-07-08T06:44:53.367Z,3.70
2023-07-08T06:47:23.666Z,3.33
2023-07-08T06:49:51.698Z,3.35
2023-07-08T06:52:19.713Z,2.95
2023-07-08T06:54:47.712Z,2.75
2023-07-08T06:57:15.736Z,2.70
2023-07-08T06:59:44.046Z,3.08
2023-07-08T07:02:12.060Z,2.78
2023-07-08T07:04:47.153Z,2.88
2023-07-08T07:07:15.308Z,2.92
2023-07-08T07:09:43.375Z,2.85
2023-07-08T07:12:11.419Z,3.00
2023-07-08T07:19:38.289Z,2.70
2023-07-08T07:22:08.021Z,3.15
2023-07-08T07:24:35.932Z,2.80
2023-07-08T07:27:03.932Z,2.67
2023-07-08T07:29:40.090Z,2.83
2023-07-08T07:32:08.849Z,2.92
2023-07-08T07:34:37.088Z,3.10
2023-07-08T07:37:05.204Z,2.88
2023-07-08T07:39:35.118Z,2.95
2023-07-08T07:42:03.126Z,3.25
2023-07-08T07:44:31.153Z,2.80
2023-07-08T07:46:59.272Z,3.28
2023-07-08T07:49:27.450Z,2.78
2023-07-08T07:51:55.521Z,3.10
2023-07-08T07:54:23.488Z,3.03
2023-07-08T07:56:52.837Z,3.15
2023-07-08T07:59:20.862Z,3.28
2023-07-08T08:01:48.924Z,3.20
2023-07-08T08:04:16.990Z,2.80
2023-07-08T08:06:45.006Z,3.00
2023-07-08T08:09:12.972Z,2.47
2023-07-08T08:11:40.930Z,2.97
2023-07-08T08:14:10.369Z,3.47
2023-07-08T08:16:38.439Z,3.13
2023-07-08T08:19:09.086Z,2.70
2023-07-08T08:21:37.495Z,2.90
2023-07-08T08:24:05.890Z,3.00
2023-07-08T08:26:33.890Z,3.05
2023-07-08T08:29:02.708Z,3.45
2023-07-08T08:31:32.575Z,3.30
2023-07-08T08:34:00.821Z,3.30
2023-07-08T08:36:28.836Z,3.78
2023-07-08T08:38:56.879Z,3.00
2023-07-08T08:41:31.595Z,3.38
2023-07-08T08:44:00.742Z,3.17
2023-07-08T08:46:32.565Z,2.58
2023-07-08T08:49:07.324Z,3.10
2023-07-08T08:51:35.419Z,2.78
2023-07-08T08:54:03.398Z,3.35
2023-07-08T08:56:33.014Z,3.20
2023-07-08T08:59:06.188Z,3.27
2023-07-08T09:01:36.403Z,3.80
2023-07-08T09:04:08.459Z,3.45
2023-07-08T09:06:37.049Z,3.40
2023-07-08T09:09:08.094Z,3.10
2023-07-08T09:11:41.122Z,3.63
2023-07-08T09:14:15.104Z,3.90
2023-07-08T09:16:45.750Z,4.00
2023-07-08T09:19:16.441Z,3.70
2023-07-08T09:21:48.019Z,4.10
2023-07-08T09:24:18.952Z,3.72
2023-07-08T09:26:47.946Z,3.55
2023-07-08T09:29:15.942Z,4.05
2023-07-08T09:31:44.328Z,3.67
2023-07-08T09:34:13.453Z,4.07
2023-07-08T09:36:44.525Z,3.80
2023-07-08T09:39:14.089Z,3.75
2023-07-08T09:41:42.773Z,3.57
2023-07-08T09:44:16.541Z,4.05
2023-07-08T09:46:45.277Z,3.72
2023-07-08T09:49:21.468Z,4.15
2023-07-08T09:51:51.476Z,3.88
2023-07-08T09:54:19.921Z,3.67
2023-07-08T09:56:53.793Z,4.13
2023-07-08T09:59:23.321Z,3.75
2023-07-08T10:01:51.438Z,4.53
2023-07-08T10:04:21.329Z,4.30
2023-07-08T10:06:49.620Z,4.00
2023-07-08T10:09:21.433Z,3.90
2023-07-08T10:11:51.485Z,3.72
2023-07-08T10:14:25.146Z,4.10
2023-07-08T10:16:53.496Z,4.07
2023-07-08T10:19:22.274Z,4.30
2023-07-08T10:21:53.730Z,4.40
2023-07-08T10:24:29.349Z,4.68
2023-07-08T10:26:59.985Z,4.05
2023-07-08T10:29:33.059Z,4.10
2023-07-08T10:32:05.642Z,3.95
2023-07-08T10:34:38.817Z,4.05
2023-07-08T10:37:09.891Z,4.05
2023-07-08T10:39:45.399Z,4.15
2023-07-08T10:42:18.336Z,4.72
2023-07-08T10:44:52.273Z,4.50
2023-07-08T10:47:27.935Z,4.95
2023-07-08T10:50:04.079Z,4.20
2023-07-08T10:52:36.439Z,4.72
2023-07-08T10:55:10.554Z,4.32
2023-07-08T10:57:48.453Z,4.68
2023-07-08T11:00:20.814Z,4.82
2023-07-08T11:03:02.276Z,4.22
2023-07-08T11:05:33.628Z,4.47
2023-07-08T11:08:03.334Z,4.50
2023-07-08T11:10:37.135Z,4.72
2023-07-08T11:13:07.460Z,4.63
2023-07-08T11:15:38.178Z,4.90
2023-07-08T11:18:09.047Z,4.28
2023-07-08T11:20:40.477Z,4.78
2023-07-08T11:23:13.253Z,4.63
2023-07-08T11:25:43.836Z,4.50
2023-07-08T11:28:14.736Z,4.50
2023-07-08T11:30:43.306Z,4.68
2023-07-08T11:33:12.646Z,4.95
2023-07-08T11:35:43.645Z,4.67
2023-07-08T11:38:16.806Z,4.55
2023-07-08T11:40:53.540Z,4.70
2023-07-08T11:43:22.511Z,4.72
2023-07-08T11:45:51.096Z,4.50
2023-07-08T11:48:23.480Z,4.45
2023-07-08T11:50:52.719Z,4.57
2023-07-08T11:53:38.720Z,4.82
2023-07-08T11:56:22.058Z,4.55
2023-07-08T11:58:54.450Z,4.68
2023-07-08T12:01:25.299Z,4.40
2023-07-08T12:03:53.958Z,4.30
2023-07-08T12:06:39.624Z,4.65
2023-07-08T12:09:16.558Z,4.55
2023-07-08T12:11:47.523Z,4.53
2023-07-08T12:14:16.682Z,4.55
2023-07-08T12:16:47.237Z,4.22
2023-07-08T12:19:17.476Z,4.43
2023-07-08T12:21:45.628Z,4.93
2023-07-08T12:24:15.410Z,4.25
2023-07-08T12:26:43.908Z,4.60
2023-07-08T12:29:14.913Z,4.38
2023-07-08T12:31:44.884Z,4.25
2023-07-08T12:34:14.653Z,4.57
2023-07-08T12:36:43.419Z,8.05
2023-07-08T12:39:15.957Z,4.63
2023-07-08T12:41:44.611Z,5.00
2023-07-08T12:44:24.055Z,4.50
2023-07-08T12:46:54.301Z,4.78
2023-07-08T12:49:27.779Z,4.05
2023-07-08T12:51:55.805Z,4.18
2023-07-08T12:54:24.169Z,4.15
2023-07-08T12:56:53.305Z,4.85
2023-07-08T12:59:23.411Z,4.60
2023-07-08T13:01:54.262Z,4.63
2023-07-08T13:04:22.563Z,4.57
2023-07-08T13:06:50.886Z,4.40
2023-07-08T13:09:33.844Z,4.40
2023-07-08T13:12:05.012Z,4.63
2023-07-08T13:14:33.109Z,4.88
2023-07-08T13:17:02.680Z,4.38
2023-07-08T13:19:30.906Z,4.88
2023-07-08T13:22:00.549Z,5.00
2023-07-08T13:24:32.146Z,4.75
2023-07-08T13:27:00.288Z,4.32
2023-07-08T13:29:28.300Z,4.80
2023-07-08T13:31:57.913Z,5.25
2023-07-08T13:34:27.206Z,5.13
2023-07-08T13:36:56.136Z,4.82
2023-07-08T13:39:26.416Z,4.65
2023-07-08T13:41:54.683Z,4.85
2023-07-08T13:44:22.622Z,4.55
2023-07-08T13:46:54.354Z,4.60
2023-07-08T13:49:24.450Z,4.88
2023-07-08T13:51:54.064Z,4.65
2023-07-08T13:54:23.188Z,4.80
2023-07-08T13:56:52.509Z,4.60
2023-07-08T13:59:23.210Z,4.32
2023-07-08T14:01:54.341Z,4.38
2023-07-08T14:04:23.711Z,4.72
2023-07-08T14:06:51.838Z,4.90
2023-07-08T14:09:22.902Z,5.20
2023-07-08T14:11:54.063Z,4.63
2023-07-08T14:14:22.102Z,5.32
2023-07-08T14:16:51.081Z,5.13
2023-07-08T14:19:22.545Z,4.30
2023-07-08T14:21:53.577Z,4.80
2023-07-08T14:24:23.054Z,4.45
2023-07-08T14:26:51.203Z,4.93
2023-07-08T14:29:19.146Z,5.03
2023-07-08T14:31:47.170Z,4.75
2023-07-08T14:34:17.484Z,4.78
2023-07-08T14:36:45.472Z,5.15
2023-07-08T14:39:14.628Z,4.88
2023-07-08T14:41:44.806Z,4.60
2023-07-08T14:44:20.495Z,4.80
2023-07-08T14:46:48.508Z,4.38
2023-07-08T14:49:17.672Z,4.60
2023-07-08T14:51:45.989Z,4.53
2023-07-08T14:54:14.008Z,4.85
2023-07-08T14:56:42.287Z,4.20
2023-07-08T14:59:14.355Z,4.40
2023-07-08T15:01:42.497Z,4.60
2023-07-08T15:04:12.354Z,4.75
2023-07-08T15:06:40.358Z,4.60
2023-07-08T15:09:08.683Z,4.75
2023-07-08T15:11:38.755Z,4.05
2023-07-08T15:14:07.798Z,4.38
2023-07-08T15:16:37.181Z,4.82
2023-07-08T15:19:10.191Z,4.68
2023-07-08T15:21:38.286Z,4.40
2023-07-08T15:24:09.513Z,4.30
2023-07-08T15:26:37.650Z,4.55
2023-07-08T15:29:05.816Z,4.65
2023-07-08T15:31:34.862Z,4.30
2023-07-08T15:34:06.960Z,4.55
2023-07-08T15:36:35.007Z,5.05
2023-07-08T15:39:03.697Z,4.75
2023-07-08T15:41:32.271Z,4.63
2023-07-08T15:44:00.779Z,4.57
2023-07-08T15:46:31.559Z,4.93
2023-07-08T15:48:59.590Z,4.97
2023-07-08T15:51:30.338Z,4.68
2023-07-08T15:53:58.429Z,4.82
2023-07-08T15:56:27.526Z,4.75
2023-07-08T15:58:55.554Z,4.63
2023-07-08T16:01:25.359Z,4.80
2023-07-08T16:06:21.305Z,4.90
2023-07-08T16:08:50.670Z,4.38
2023-07-08T16:11:20.846Z,4.80
2023-07-08T16:13:49.727Z,4.72
2023-07-08T16:16:17.826Z,4.40
2023-07-08T16:18:45.986Z,4.68
2023-07-08T16:21:14.138Z,4.18
2023-07-08T16:23:42.283Z,4.97
2023-07-08T16:26:13.378Z,4.93
2023-07-08T16:28:43.536Z,4.45
2023-07-08T16:31:12.264Z,4.60
2023-07-08T16:33:40.409Z,4.90
2023-07-08T16:36:11.645Z,4.47
2023-07-08T16:38:39.618Z,4.78
2023-07-08T16:41:10.097Z,4.60
2023-07-08T16:43:39.480Z,4.80
2023-07-08T16:46:07.559Z,5.05
2023-07-08T16:48:35.605Z,4.53
2023-07-08T16:51:03.638Z,4.45
2023-07-08T16:53:31.684Z,4.80
2023-07-08T16:55:59.710Z,4.68
2023-07-08T16:58:27.883Z,4.90
2023-07-08T17:00:57.275Z,4.78
2023-07-08T17:03:26.074Z,5.10
2023-07-08T17:05:54.203Z,4.80
2023-07-08T17:08:23.525Z,4.90
2023-07-08T17:10:53.085Z,4.65
2023-07-08T17:13:20.990Z,4.93
2023-07-08T17:15:50.322Z,4.80
2023-07-08T17:18:22.480Z,4.72
2023-07-08T17:20:52.052Z,5.00
2023-07-08T17:23:21.183Z,4.82
2023-07-08T17:25:49.520Z,5.67
2023-07-08T17:28:18.039Z,4.72
2023-07-08T17:30:47.251Z,4.68
2023-07-08T17:33:16.099Z,5.00
2023-07-08T17:35:48.028Z,4.25
2023-07-08T17:38:17.210Z,4.95
2023-07-08T17:40:45.378Z,5.53
2023-07-08T17:43:13.525Z,4.72
2023-07-08T17:45:42.599Z,4.55
2023-07-08T17:48:24.320Z,4.33
2023-07-08T17:50:54.764Z,4.72
2023-07-08T17:53:22.830Z,5.03
2023-07-08T17:55:52.110Z,4.60
2023-07-08T17:58:20.277Z,5.55
2023-07-08T18:00:51.807Z,5.30
2023-07-08T18:03:20.330Z,4.95
2023-07-08T18:05:48.362Z,5.18
2023-07-08T18:08:17.730Z,4.70
2023-07-08T18:10:45.791Z,4.88
2023-07-08T18:13:18.536Z,4.85
2023-07-08T18:15:46.540Z,5.50
2023-07-08T18:18:14.569Z,4.97
2023-07-08T18:20:47.387Z,5.13
2023-07-08T18:23:18.711Z,4.90
2023-07-08T18:25:46.696Z,5.57
2023-07-08T18:28:15.096Z,5.07
2023-07-08T18:30:43.767Z,5.28
2023-07-08T18:33:13.527Z,5.28
2023-07-08T18:35:41.829Z,5.28
2023-07-08T18:38:10.300Z,5.60
2023-07-08T18:40:42.643Z,4.95
2023-07-08T18:43:15.486Z,5.28
2023-07-08T18:45:43.531Z,5.15
2023-07-08T18:48:12.915Z,5.45
2023-07-08T18:50:41.139Z,5.40
2023-07-08T18:53:14.464Z,5.65
2023-07-08T18:55:44.341Z,4.85
2023-07-08T18:58:13.393Z,5.95
2023-07-08T19:00:41.859Z,5.40
2023-07-08T19:03:15.761Z,5.18
2023-07-08T19:05:43.788Z,5.68
2023-07-08T19:08:11.873Z,5.00
2023-07-08T19:10:40.888Z,5.05
2023-07-08T19:13:13.484Z,5.35
2023-07-08T19:15:41.452Z,5.70
2023-07-08T19:18:10.187Z,5.82
2023-07-08T19:20:39.001Z,5.70
2023-07-08T19:23:10.533Z,5.50
2023-07-08T19:25:38.640Z,6.25
2023-07-08T19:28:07.052Z,6.03
2023-07-08T19:30:36.514Z,6.13
2023-07-08T19:33:05.464Z,6.10
2023-07-08T19:35:37.466Z,5.70
2023-07-08T19:38:06.136Z,6.07
2023-07-08T19:40:34.154Z,5.82
2023-07-08T19:43:02.135Z,6.15
2023-07-08T19:45:30.858Z,5.78
2023-07-08T19:48:00.323Z,5.70
2023-07-08T19:50:29.550Z,5.73
2023-07-08T19:52:57.696Z,6.47
2023-07-08T19:55:25.669Z,5.32
2023-07-08T19:57:56.663Z,5.78
2023-07-08T20:00:26.398Z,6.68
2023-07-08T20:02:58.444Z,5.95
2023-07-08T20:05:29.391Z,6.57
2023-07-08T20:08:00.696Z,6.20
2023-07-08T20:10:29.334Z,5.88
2023-07-08T20:12:58.081Z,6.28
2023-07-08T20:15:27.798Z,5.55
2023-07-08T20:17:57.718Z,6.28
2023-07-08T20:20:27.004Z,5.75
2023-07-08T20:22:56.711Z,6.30
2023-07-08T20:25:25.663Z,6.80
2023-07-08T20:27:56.040Z,6.28
2023-07-08T20:30:27.752Z,6.38
2023-07-08T20:32:57.732Z,6.10
2023-07-08T20:35:26.742Z,6.32
2023-07-08T20:37:56.572Z,6.50
2023-07-08T20:40:25.494Z,6.63
2023-07-08T20:42:54.429Z,6.53
2023-07-08T20:45:25.188Z,6.97
2023-07-08T20:47:53.596Z,7.60
2023-07-08T20:50:22.843Z,6.97
2023-07-08T20:52:51.630Z,6.68
2023-07-08T20:55:22.549Z,6.57
2023-07-08T20:57:51.081Z,6.55
2023-07-08T21:00:23.430Z,7.20
2023-07-08T21:02:51.661Z,6.85
2023-07-08T21:05:20.042Z,7.65
2023-07-08T21:07:48.931Z,6.30
2023-07-08T21:10:18.788Z,6.75
2023-07-08T21:12:48.379Z,7.07
2023-07-08T21:15:17.475Z,6.63
2023-07-08T21:17:45.751Z,6.65
2023-07-08T21:20:18.197Z,6.35
2023-07-08T21:22:46.538Z,6.22
2023-07-08T21:25:15.558Z,6.63
2023-07-08T21:27:44.187Z,7.10
2023-07-08T21:30:17.464Z,6.20
2023-07-08T21:32:46.238Z,6.80
2023-07-08T21:35:14.756Z,6.55
2023-07-08T21:37:47.991Z,6.85
2023-07-08T21:40:21.737Z,7.00
2023-07-08T21:42:49.808Z,6.70
2023-07-08T21:45:25.830Z,6.82
2023-07-08T21:47:54.026Z,6.97
2023-07-08T21:50:22.340Z,6.82
2023-07-08T21:52:50.464Z,7.07
2023-07-08T21:55:19.190Z,7.00
2023-07-08T21:57:47.392Z,7.03
2023-07-08T22:00:17.920Z,6.93
2023-07-08T22:02:49.635Z,7.28
2023-07-08T22:05:18.617Z,6.63
2023-07-08T22:07:46.840Z,7.28
2023-07-08T22:10:16.062Z,6.30
2023-07-08T22:12:44.359Z,6.88
2023-07-08T22:15:19.471Z,7.53
2023-07-08T22:17:49.433Z,7.30
2023-07-08T22:20:18.324Z,6.57
2023-07-08T22:22:46.928Z,6.93
2023-07-08T22:25:17.493Z,7.00
2023-07-08T22:27:45.662Z,7.80
2023-07-08T22:30:14.744Z,7.90
2023-07-08T22:32:42.980Z,7.38
2023-07-08T22:35:16.585Z,7.60
2023-07-08T22:37:44.577Z,7.40
2023-07-08T22:40:13.132Z,7.85
2023-07-08T22:42:44.114Z,7.75
2023-07-08T22:45:16.417Z,7.90
2023-07-08T22:47:45.898Z,7.53
2023-07-08T22:50:15.510Z,8.40
2023-07-08T22:52:44.231Z,8.30
2023-07-08T22:55:13.935Z,8.88
2023-07-08T22:57:41.969Z,8.75
2023-07-08T23:00:11.830Z,8.95
2023-07-08T23:02:39.972Z,9.02
2023-07-08T23:05:08.215Z,8.52
2023-07-08T23:07:37.617Z,8.48
2023-07-08T23:10:06.055Z,7.85
2023-07-08T23:12:34.079Z,8.38
2023-07-08T23:15:02.078Z,7.90
2023-07-08T23:17:30.766Z,8.57
2023-07-08T23:20:00.099Z,8.00
2023-07-08T23:22:29.098Z,8.80
2023-07-08T23:24:58.560Z,7.93
2023-07-08T23:27:26.725Z,7.63
2023-07-08T23:29:54.720Z,8.10
2023-07-08T23:32:23.242Z,9.45
2023-07-08T23:34:51.342Z,8.98
2023-07-08T23:37:19.568Z,9.30
2023-07-08T23:39:47.553Z,9.15
2023-07-08T23:42:17.918Z,8.90
2023-07-08T23:44:45.966Z,8.43
2023-07-08T23:47:18.071Z,8.90
2023-07-08T23:49:46.049Z,8.65
2023-07-08T23:52:15.524Z,8.70
2023-07-08T23:54:43.730Z,8.88
2023-07-08T23:57:14.225Z,8.45
2023-07-08T23:59:46.922Z,8.25
